Hoogeveen, Netherlands
Current Conditions -  °F | °C
As of 5:25 AM on Thursday 29 Jan 2015 (Local Time) from EHGG Reporting Station
Heavy Rain Heavy Rain  
Wind Chill: 24°   Ceiling: 1500
Heat Index: 36°   Visibility: 6mi
Dew Point: 34°   Wind: 23mph
Humidity: 93%   Direction: 230°SW
Pressure: 29.12"   Gusts: NA
Location:  52.73°N, 6.52°E
Report Text: EHGG 290425Z AUTO 23020KT 200V260 9999 +DZRA FEW005 SCT011BKN015CB 02/01 Q0986 RERA REDZ
Loading
Personal Weather Stations






























Interactive Weather Map New forecast layout! Learn more

10-Day Weather Forecast

Advertisements
Track Severe Weather on mobile